createdAt,value
2019-01-16T00:01:16.694Z,85.30
2019-01-16T00:04:16.279Z,84.30
2019-01-16T00:07:16.038Z,84.40
2019-01-16T00:10:16.285Z,84.90
2019-01-16T00:16:11.929Z,85.10
2019-01-16T00:19:14.666Z,85.10
2019-01-16T00:22:14.633Z,85.30
2019-01-16T00:25:14.284Z,84.90
2019-01-16T00:28:19.769Z,85.90
2019-01-16T00:31:22.197Z,85.70
2019-01-16T00:34:17.549Z,86.10
2019-01-16T00:40:06.993Z,84.30
2019-01-16T00:43:04.290Z,84.80
2019-01-16T00:46:03.133Z,85.60
2019-01-16T00:49:03.588Z,86.20
2019-01-16T00:51:57.099Z,86.50
2019-01-16T01:15:37.861Z,85.00
2019-01-16T01:18:32.014Z,85.90
2019-01-16T01:21:28.413Z,85.90
2019-01-16T01:24:28.499Z,86.10
2019-01-16T01:27:27.946Z,86.10
2019-01-16T01:30:28.230Z,85.70
2019-01-16T01:33:27.742Z,85.50
2019-01-16T01:36:27.496Z,85.00
2019-01-16T01:39:19.906Z,85.20
2019-01-16T01:45:21.869Z,86.60
2019-01-16T01:48:21.549Z,86.60
2019-01-16T01:51:21.142Z,86.20
2019-01-16T01:54:08.921Z,86.30
2019-01-16T02:09:42.818Z,85.70
2019-01-16T02:24:50.400Z,84.80
2019-01-16T02:27:57.435Z,84.90
2019-01-16T02:31:04.418Z,84.60
2019-01-16T02:34:11.408Z,84.60
2019-01-16T02:37:06.016Z,84.30
2019-01-16T02:40:13.041Z,84.70
2019-01-16T02:43:20.092Z,84.50
2019-01-16T02:46:27.501Z,84.40
2019-01-16T02:49:24.853Z,83.30
2019-01-16T02:52:31.839Z,83.90
2019-01-16T02:55:38.828Z,84.20
2019-01-16T02:58:45.841Z,84.60
2019-01-16T03:01:52.857Z,84.20
2019-01-16T03:04:59.896Z,84.10
2019-01-16T03:08:06.873Z,84.20
2019-01-16T03:11:13.865Z,83.60
2019-01-16T03:14:20.910Z,83.80
2019-01-16T03:17:21.303Z,83.60
2019-01-16T03:20:28.600Z,84.40
2019-01-16T03:23:35.639Z,84.50
2019-01-16T03:26:42.636Z,83.90
2019-01-16T03:29:49.680Z,84.40
2019-01-16T03:32:46.046Z,84.80
2019-01-16T03:35:53.030Z,85.10
2019-01-16T03:39:00.044Z,84.30
2019-01-16T03:41:49.642Z,84.30
2019-01-16T03:44:47.730Z,84.90
2019-01-16T03:47:40.032Z,84.20
2019-01-16T03:50:39.776Z,83.80
2019-01-16T03:53:33.323Z,83.40
2019-01-16T03:56:33.581Z,82.80
2019-01-16T03:59:39.693Z,82.80
2019-01-16T04:02:39.363Z,83.30
2019-01-16T04:05:38.943Z,83.60
2019-01-16T04:08:41.499Z,83.70
2019-01-16T04:11:40.937Z,83.50
2019-01-16T04:17:54.035Z,90.00
2019-01-16T04:20:54.241Z,99.90
2019-01-16T04:36:08.291Z,82.80
2019-01-16T04:39:08.494Z,83.00
2019-01-16T04:42:07.945Z,83.00
2019-01-16T04:45:11.269Z,82.80
2019-01-16T04:47:51.789Z,83.50
2019-01-16T04:50:54.227Z,83.30
2019-01-16T04:53:53.680Z,83.20
2019-01-16T04:56:53.238Z,82.90
2019-01-16T04:59:48.234Z,82.10
2019-01-16T05:02:48.348Z,82.20
2019-01-16T05:05:51.214Z,82.00
2019-01-16T05:08:53.717Z,81.20
2019-01-16T05:11:59.030Z,81.90
2019-01-16T05:14:58.675Z,81.80
2019-01-16T05:17:58.694Z,81.10
2019-01-16T05:21:00.949Z,81.00
2019-01-16T05:24:03.769Z,80.80
2019-01-16T05:26:44.399Z,81.40
2019-01-16T05:29:45.707Z,80.40
2019-01-16T05:32:45.421Z,80.00
2019-01-16T05:35:45.670Z,79.70
2019-01-16T05:38:48.649Z,79.90
2019-01-16T05:41:48.543Z,80.20
2019-01-16T05:44:48.052Z,81.40
2019-01-16T05:47:38.705Z,80.20
2019-01-16T05:50:19.478Z,79.90
2019-01-16T05:53:19.714Z,79.70
2019-01-16T05:56:19.971Z,79.40
2019-01-16T05:59:07.685Z,91.90
2019-01-16T06:05:21.708Z,79.00
2019-01-16T06:08:18.071Z,79.00
2019-01-16T06:11:25.102Z,79.10
2019-01-16T06:14:32.182Z,78.10
2019-01-16T06:17:27.740Z,79.00
2019-01-16T06:20:24.389Z,78.60
2019-01-16T06:23:31.405Z,79.50
2019-01-16T06:26:38.474Z,79.60
2019-01-16T06:29:45.455Z,79.30
2019-01-16T06:32:52.472Z,79.20
2019-01-16T06:35:59.466Z,79.20
2019-01-16T06:38:58.889Z,79.50
2019-01-16T06:41:58.344Z,78.90
2019-01-16T06:44:57.851Z,79.20
2019-01-16T06:47:57.442Z,79.80
2019-01-16T06:50:56.905Z,79.00
2019-01-16T06:53:56.494Z,78.90
2019-01-16T06:56:56.198Z,79.10
2019-01-16T06:59:36.625Z,79.40
2019-01-16T07:02:43.695Z,80.20
2019-01-16T07:05:50.713Z,80.50
2019-01-16T07:08:57.712Z,80.90
2019-01-16T07:12:04.760Z,79.70
2019-01-16T07:15:11.744Z,79.40
2019-01-16T07:18:08.964Z,80.20
2019-01-16T07:21:15.954Z,78.70
2019-01-16T07:27:29.760Z,78.70
2019-01-16T07:30:29.145Z,78.90
2019-01-16T07:33:36.408Z,79.30
2019-01-16T07:36:43.459Z,80.00
2019-01-16T07:39:50.493Z,80.50
2019-01-16T07:42:54.035Z,80.00
2019-01-16T07:45:45.486Z,80.10
2019-01-16T07:48:45.403Z,79.00
2019-01-16T07:51:44.745Z,79.50
2019-01-16T07:54:32.842Z,79.90
2019-01-16T08:10:06.738Z,97.80
2019-01-16T08:13:13.772Z,92.90
2019-01-16T08:16:22.528Z,81.80
2019-01-16T08:19:29.822Z,82.10
2019-01-16T08:22:36.848Z,83.20
2019-01-16T08:25:43.838Z,84.10
2019-01-16T08:28:50.842Z,84.20
2019-01-16T08:31:57.870Z,84.30
2019-01-16T08:35:04.859Z,84.80
2019-01-16T08:38:12.698Z,84.80
2019-01-16T08:47:12.580Z,88.00
2019-01-16T08:50:18.322Z,86.50
2019-01-16T08:53:18.313Z,86.90
2019-01-16T08:56:18.666Z,83.80
2019-01-16T09:02:30.768Z,80.30
2019-01-16T09:05:37.779Z,78.60
2019-01-16T09:08:44.805Z,77.10
2019-01-16T09:11:51.807Z,76.20
2019-01-16T09:14:58.812Z,75.70
2019-01-16T09:18:05.826Z,76.20
2019-01-16T09:21:12.844Z,75.10
2019-01-16T09:24:00.616Z,75.30
2019-01-16T09:27:07.618Z,75.00
2019-01-16T09:30:14.617Z,75.20
2019-01-16T09:33:21.605Z,76.20
2019-01-16T09:36:15.777Z,75.50
2019-01-16T09:39:25.055Z,75.10
2019-01-16T09:42:24.638Z,75.20
2019-01-16T09:48:30.517Z,73.30
2019-01-16T09:51:37.546Z,72.50
2019-01-16T09:54:44.517Z,72.60
2019-01-16T09:57:46.612Z,71.00
2019-01-16T10:00:53.615Z,68.50
2019-01-16T10:04:00.653Z,69.80
2019-01-16T10:07:07.689Z,67.70
2019-01-16T10:10:14.687Z,67.50
2019-01-16T10:13:21.689Z,66.80
2019-01-16T10:16:28.678Z,66.20
2019-01-16T10:19:36.024Z,66.70
2019-01-16T10:22:43.060Z,66.10
2019-01-16T10:25:50.054Z,65.70
2019-01-16T10:28:57.040Z,66.00
2019-01-16T10:32:04.021Z,65.20
2019-01-16T10:34:51.981Z,67.30
2019-01-16T10:37:59.008Z,66.20
2019-01-16T10:40:58.846Z,61.20
2019-01-16T10:43:50.689Z,61.50
2019-01-16T10:55:44.206Z,62.30
2019-01-16T10:58:51.197Z,63.60
2019-01-16T11:01:58.207Z,62.50
2019-01-16T11:05:05.230Z,60.40
2019-01-16T11:08:03.318Z,59.70
2019-01-16T11:11:16.008Z,59.80
2019-01-16T11:14:16.428Z,59.10
2019-01-16T11:17:23.484Z,59.10
2019-01-16T11:20:11.196Z,58.40
2019-01-16T11:23:18.186Z,59.90
2019-01-16T11:26:16.596Z,58.90
2019-01-16T11:29:23.597Z,58.00
2019-01-16T11:32:30.652Z,59.40
2019-01-16T11:35:37.642Z,58.40
2019-01-16T11:38:44.646Z,59.00
2019-01-16T11:41:42.799Z,58.60
2019-01-16T11:44:49.829Z,58.20
2019-01-16T11:47:37.672Z,57.20
2019-01-16T11:50:33.160Z,57.50
2019-01-16T11:53:40.164Z,57.10
2019-01-16T11:56:47.207Z,56.20
2019-01-16T11:59:54.193Z,56.70
2019-01-16T12:03:01.195Z,56.20
2019-01-16T12:06:08.233Z,56.00
2019-01-16T12:09:15.221Z,57.30
2019-01-16T12:12:22.217Z,57.10
2019-01-16T12:15:31.909Z,57.20
2019-01-16T12:18:32.211Z,58.10
2019-01-16T12:21:31.471Z,56.60
2019-01-16T12:24:31.475Z,55.80
2019-01-16T12:27:30.220Z,55.70
2019-01-16T12:30:18.220Z,55.30
2019-01-16T12:33:18.226Z,54.80
2019-01-16T12:36:08.493Z,54.50
2019-01-16T12:39:00.192Z,55.00
2019-01-16T12:42:06.205Z,55.30
2019-01-16T12:44:58.883Z,55.10
2019-01-16T12:47:46.665Z,55.70
2019-01-16T12:50:53.696Z,55.40
2019-01-16T12:54:00.694Z,55.70
2019-01-16T12:57:07.683Z,56.80
2019-01-16T13:00:14.674Z,56.70
2019-01-16T13:03:02.410Z,56.50
2019-01-16T13:06:09.399Z,56.80
2019-01-16T13:09:16.392Z,56.70
2019-01-16T13:12:23.633Z,57.10
2019-01-16T13:15:30.629Z,56.30
2019-01-16T13:18:37.661Z,56.10
2019-01-16T13:21:32.993Z,56.90
2019-01-16T13:24:40.020Z,57.60
2019-01-16T13:27:47.053Z,57.30
2019-01-16T13:30:54.053Z,58.00
2019-01-16T13:33:30.885Z,58.40
2019-01-16T13:36:32.811Z,58.70
2019-01-16T13:39:39.794Z,59.60
2019-01-16T13:42:27.572Z,58.50
2019-01-16T13:45:15.347Z,57.90
2019-01-16T13:51:29.034Z,57.90
2019-01-16T14:03:56.129Z,57.50
2019-01-16T14:06:51.780Z,57.50
2019-01-16T14:09:47.868Z,57.90
2019-01-16T14:12:54.978Z,58.00
2019-01-16T14:16:02.302Z,56.50
2019-01-16T14:19:09.285Z,56.40
2019-01-16T14:22:16.281Z,56.20
2019-01-16T14:25:23.332Z,56.50
2019-01-16T14:28:30.320Z,56.10
2019-01-16T14:31:30.129Z,56.10
2019-01-16T14:34:37.121Z,56.40
2019-01-16T14:37:44.112Z,56.10
2019-01-16T14:40:51.112Z,56.60
2019-01-16T14:43:58.116Z,57.00
2019-01-16T14:47:05.116Z,56.70
2019-01-16T14:50:12.151Z,57.50
2019-01-16T14:53:19.152Z,57.60
2019-01-16T14:56:06.862Z,57.40
2019-01-16T14:59:13.872Z,58.70
2019-01-16T15:02:20.879Z,59.60
2019-01-16T15:05:28.423Z,58.90
2019-01-16T15:08:35.492Z,59.80
2019-01-16T15:11:42.489Z,60.50
2019-01-16T15:14:49.542Z,59.90
2019-01-16T15:17:56.588Z,60.90
2019-01-16T15:21:03.573Z,61.90
2019-01-16T15:23:51.281Z,61.30
2019-01-16T15:26:58.269Z,62.60
2019-01-16T15:30:05.282Z,62.60
2019-01-16T15:33:12.282Z,63.10
2019-01-16T15:36:19.289Z,64.10
2019-01-16T15:39:28.811Z,64.10
2019-01-16T15:45:30.692Z,65.10
2019-01-16T15:48:30.203Z,65.20
2019-01-16T15:54:32.648Z,65.60
2019-01-16T15:57:39.631Z,66.60
2019-01-16T16:00:46.721Z,66.70
2019-01-16T16:03:53.721Z,67.00
2019-01-16T16:07:00.703Z,67.90
2019-01-16T16:10:07.697Z,68.20
2019-01-16T16:13:14.698Z,68.30
2019-01-16T16:16:10.892Z,68.20
2019-01-16T16:19:17.904Z,69.30
2019-01-16T16:22:19.207Z,70.30
2019-01-16T16:25:02.910Z,71.30
2019-01-16T16:34:14.456Z,71.80
2019-01-16T16:37:21.462Z,72.10
2019-01-16T16:40:28.617Z,72.10
2019-01-16T16:43:17.672Z,72.70
2019-01-16T16:46:17.180Z,73.80
2019-01-16T16:49:13.513Z,75.50
2019-01-16T16:52:13.718Z,75.60
2019-01-16T16:55:01.715Z,75.60
2019-01-16T16:58:08.705Z,76.10
2019-01-16T17:01:15.708Z,75.90
2019-01-16T17:04:22.761Z,76.20
2019-01-16T17:07:29.875Z,76.70
2019-01-16T17:10:36.941Z,76.90
2019-01-16T17:13:47.619Z,77.10
2019-01-16T17:16:52.736Z,76.80
2019-01-16T17:19:59.739Z,76.90
2019-01-16T17:22:56.541Z,77.20
2019-01-16T17:26:03.560Z,77.20
2019-01-16T17:29:10.552Z,77.30
2019-01-16T17:32:17.536Z,77.70
2019-01-16T17:35:24.844Z,77.80
2019-01-16T17:38:20.531Z,78.20
2019-01-16T17:41:20.321Z,78.10
2019-01-16T17:44:19.904Z,76.90
2019-01-16T17:47:07.665Z,77.10
2019-01-16T17:59:35.051Z,78.50
2019-01-16T18:05:48.750Z,79.20
2019-01-16T18:12:02.564Z,79.10
2019-01-16T18:15:09.604Z,79.30
2019-01-16T18:18:16.584Z,79.20
2019-01-16T18:24:30.290Z,79.20
2019-01-16T18:52:13.763Z,80.30
2019-01-16T18:55:08.224Z,80.40
2019-01-16T18:58:07.744Z,82.00
2019-01-16T19:01:07.384Z,80.30
2019-01-16T19:04:07.632Z,80.50
2019-01-16T19:07:10.904Z,81.00
2019-01-16T19:10:10.258Z,81.20
2019-01-16T19:13:07.542Z,80.80
2019-01-16T19:15:59.074Z,81.50
2019-01-16T19:18:47.083Z,81.60
2019-01-16T19:21:35.385Z,81.50
2019-01-16T19:24:42.759Z,81.80
2019-01-16T19:27:49.826Z,81.50
2019-01-16T19:30:56.823Z,81.60
2019-01-16T19:33:50.727Z,81.60
2019-01-16T19:36:48.097Z,82.30
2019-01-16T19:39:55.126Z,82.70
2019-01-16T19:42:58.339Z,83.20
2019-01-16T19:45:57.737Z,82.10
2019-01-16T19:48:49.952Z,81.70
2019-01-16T19:55:07.209Z,82.10
2019-01-16T20:06:52.846Z,82.10
2019-01-16T20:09:49.548Z,82.40
2019-01-16T20:12:56.600Z,83.50
2019-01-16T20:16:03.631Z,83.80
2019-01-16T20:19:10.628Z,82.80
2019-01-16T20:22:17.669Z,83.70
2019-01-16T20:25:26.068Z,84.60
2019-01-16T20:28:33.061Z,84.10
2019-01-16T20:31:40.098Z,83.50
2019-01-16T20:34:47.132Z,83.60
2019-01-16T20:37:54.226Z,83.40
2019-01-16T20:40:53.646Z,84.00
2019-01-16T20:43:41.378Z,82.60
2019-01-16T20:46:48.365Z,82.10
2019-01-16T20:49:55.368Z,82.70
2019-01-16T20:53:02.353Z,83.10
2019-01-16T20:55:50.058Z,83.80
2019-01-16T20:58:49.203Z,84.20
2019-01-16T21:01:56.215Z,84.10
2019-01-16T21:05:03.205Z,84.10
2019-01-16T21:08:10.199Z,84.80
2019-01-16T21:11:05.733Z,84.30
2019-01-16T21:14:12.784Z,84.50
2019-01-16T21:17:19.761Z,84.00
2019-01-16T21:20:27.516Z,84.20
2019-01-16T21:23:34.577Z,84.40
2019-01-16T21:26:32.113Z,84.90
2019-01-16T21:29:30.016Z,84.40
2019-01-16T21:35:43.821Z,84.20
2019-01-16T21:50:48.195Z,83.80
2019-01-16T21:53:37.571Z,85.00
2019-01-16T21:56:44.664Z,85.50
2019-01-16T21:59:51.696Z,85.90
2019-01-16T22:02:58.686Z,84.80
2019-01-16T22:05:46.420Z,85.10
2019-01-16T22:08:53.484Z,85.20
2019-01-16T22:12:00.583Z,84.70
2019-01-16T22:18:20.242Z,84.00
2019-01-16T22:21:18.621Z,83.90
2019-01-16T22:24:30.629Z,84.10
2019-01-16T22:27:38.239Z,84.50
2019-01-16T22:30:45.286Z,85.70
2019-01-16T22:33:52.321Z,85.80
2019-01-16T22:36:59.578Z,84.40
2019-01-16T22:40:09.827Z,84.20
2019-01-16T22:43:12.558Z,84.60
2019-01-16T22:46:12.924Z,84.80
2019-01-16T22:49:12.787Z,84.60
2019-01-16T22:55:09.066Z,84.30
2019-01-16T22:58:12.134Z,83.90
2019-01-16T23:01:11.934Z,84.80
2019-01-16T23:04:14.623Z,84.90
2019-01-16T23:07:14.438Z,84.70
2019-01-16T23:10:17.069Z,84.20
2019-01-16T23:16:18.150Z,83.90
2019-01-16T23:18:59.829Z,84.20
2019-01-16T23:21:59.546Z,83.80
2019-01-16T23:25:00.042Z,83.50
2019-01-16T23:28:00.470Z,84.10
2019-01-16T23:31:00.046Z,84.20
2019-01-16T23:34:00.460Z,83.60
2019-01-16T23:40:02.431Z,84.20
2019-01-16T23:42:58.654Z,83.60
2019-01-16T23:45:51.575Z,83.80
2019-01-16T23:48:51.854Z,83.40
